sensor_id;sensor_type;location;lat;lon;timestamp;P1;durP1;ratioP1;P2;durP2;ratioP2
76788;SDS011;65740;52.464;13.446;2023-07-22T00:02:00;2.80;;;2.60;;
76788;SDS011;65740;52.464;13.446;2023-07-22T00:04:26;2.67;;;2.47;;
76788;SDS011;65740;52.464;13.446;2023-07-22T00:06:52;2.63;;;2.43;;
76788;SDS011;65740;52.464;13.446;2023-07-22T00:09:17;3.30;;;3.10;;
76788;SDS011;65740;52.464;13.446;2023-07-22T00:11:43;2.93;;;2.73;;
76788;SDS011;65740;52.464;13.446;2023-07-22T00:14:09;2.73;;;2.53;;
76788;SDS011;65740;52.464;13.446;2023-07-22T00:16:34;2.47;;;2.37;;
76788;SDS011;65740;52.464;13.446;2023-07-22T00:19:00;3.13;;;2.93;;
76788;SDS011;65740;52.464;13.446;2023-07-22T00:21:26;2.50;;;2.30;;
76788;SDS011;65740;52.464;13.446;2023-07-22T00:23:54;3.20;;;3.00;;
76788;SDS011;65740;52.464;13.446;2023-07-22T00:26:19;2.60;;;2.47;;
76788;SDS011;65740;52.464;13.446;2023-07-22T00:28:45;3.00;;;2.80;;
76788;SDS011;65740;52.464;13.446;2023-07-22T00:31:11;2.70;;;2.50;;
76788;SDS011;65740;52.464;13.446;2023-07-22T00:33:36;2.97;;;2.77;;
76788;SDS011;65740;52.464;13.446;2023-07-22T00:36:02;2.43;;;2.30;;
76788;SDS011;65740;52.464;13.446;2023-07-22T00:38:28;2.60;;;2.50;;
76788;SDS011;65740;52.464;13.446;2023-07-22T00:40:53;2.67;;;2.50;;
76788;SDS011;65740;52.464;13.446;2023-07-22T00:43:19;2.77;;;2.57;;
76788;SDS011;65740;52.464;13.446;2023-07-22T00:45:44;2.90;;;2.70;;
76788;SDS011;65740;52.464;13.446;2023-07-22T00:48:10;2.63;;;2.50;;
76788;SDS011;65740;52.464;13.446;2023-07-22T00:50:38;2.73;;;2.50;;
76788;SDS011;65740;52.464;13.446;2023-07-22T00:53:03;2.70;;;2.50;;
76788;SDS011;65740;52.464;13.446;2023-07-22T00:55:29;2.93;;;2.73;;
76788;SDS011;65740;52.464;13.446;2023-07-22T00:57:58;2.80;;;2.60;;
76788;SDS011;65740;52.464;13.446;2023-07-22T01:00:24;2.93;;;2.83;;
76788;SDS011;65740;52.464;13.446;2023-07-22T01:02:49;4.27;;;2.50;;
76788;SDS011;65740;52.464;13.446;2023-07-22T01:05:15;2.67;;;2.57;;
76788;SDS011;65740;52.464;13.446;2023-07-22T01:07:41;2.77;;;2.60;;
76788;SDS011;65740;52.464;13.446;2023-07-22T01:10:07;3.10;;;2.90;;
76788;SDS011;65740;52.464;13.446;2023-07-22T01:12:36;2.80;;;2.60;;
76788;SDS011;65740;52.464;13.446;2023-07-22T01:15:03;2.50;;;2.40;;
76788;SDS011;65740;52.464;13.446;2023-07-22T01:17:32;2.80;;;2.60;;
76788;SDS011;65740;52.464;13.446;2023-07-22T01:19:59;2.40;;;2.30;;
76788;SDS011;65740;52.464;13.446;2023-07-22T01:22:25;3.00;;;2.80;;
76788;SDS011;65740;52.464;13.446;2023-07-22T01:24:53;2.83;;;2.73;;
76788;SDS011;65740;52.464;13.446;2023-07-22T01:27:19;2.87;;;2.67;;
76788;SDS011;65740;52.464;13.446;2023-07-22T01:29:45;2.77;;;2.63;;
76788;SDS011;65740;52.464;13.446;2023-07-22T01:32:10;3.07;;;2.87;;
76788;SDS011;65740;52.464;13.446;2023-07-22T01:34:36;2.83;;;2.63;;
76788;SDS011;65740;52.464;13.446;2023-07-22T01:37:02;3.10;;;2.90;;
76788;SDS011;65740;52.464;13.446;2023-07-22T01:39:29;2.73;;;2.60;;
76788;SDS011;65740;52.464;13.446;2023-07-22T01:41:55;2.83;;;2.63;;
76788;SDS011;65740;52.464;13.446;2023-07-22T01:44:20;2.60;;;2.50;;
76788;SDS011;65740;52.464;13.446;2023-07-22T01:46:46;2.60;;;2.50;;
76788;SDS011;65740;52.464;13.446;2023-07-22T01:49:12;2.63;;;2.53;;
76788;SDS011;65740;52.464;13.446;2023-07-22T01:51:37;3.00;;;2.80;;
76788;SDS011;65740;52.464;13.446;2023-07-22T01:54:04;2.60;;;2.50;;
76788;SDS011;65740;52.464;13.446;2023-07-22T01:56:30;2.60;;;2.50;;
76788;SDS011;65740;52.464;13.446;2023-07-22T01:58:56;3.00;;;2.80;;
76788;SDS011;65740;52.464;13.446;2023-07-22T02:01:21;2.90;;;2.70;;
76788;SDS011;65740;52.464;13.446;2023-07-22T02:03:47;2.60;;;2.50;;
76788;SDS011;65740;52.464;13.446;2023-07-22T02:06:13;2.50;;;2.40;;
76788;SDS011;65740;52.464;13.446;2023-07-22T02:08:38;2.90;;;2.77;;
76788;SDS011;65740;52.464;13.446;2023-07-22T02:11:05;2.43;;;2.33;;
76788;SDS011;65740;52.464;13.446;2023-07-22T02:13:32;2.73;;;2.60;;
76788;SDS011;65740;52.464;13.446;2023-07-22T02:15:58;3.00;;;2.80;;
76788;SDS011;65740;52.464;13.446;2023-07-22T02:18:24;2.57;;;2.43;;
76788;SDS011;65740;52.464;13.446;2023-07-22T02:20:50;2.60;;;2.50;;
76788;SDS011;65740;52.464;13.446;2023-07-22T02:23:16;2.83;;;2.73;;
76788;SDS011;65740;52.464;13.446;2023-07-22T02:25:43;2.63;;;2.53;;
76788;SDS011;65740;52.464;13.446;2023-07-22T02:28:09;2.60;;;2.50;;
76788;SDS011;65740;52.464;13.446;2023-07-22T02:30:35;2.40;;;2.30;;
76788;SDS011;65740;52.464;13.446;2023-07-22T02:33:01;2.43;;;2.33;;
76788;SDS011;65740;52.464;13.446;2023-07-22T02:35:27;2.87;;;2.67;;
76788;SDS011;65740;52.464;13.446;2023-07-22T02:37:53;2.80;;;2.70;;
76788;SDS011;65740;52.464;13.446;2023-07-22T02:40:19;2.67;;;2.57;;
76788;SDS011;65740;52.464;13.446;2023-07-22T02:42:44;2.60;;;2.50;;
76788;SDS011;65740;52.464;13.446;2023-07-22T02:45:10;2.57;;;2.40;;
76788;SDS011;65740;52.464;13.446;2023-07-22T02:47:36;2.80;;;2.70;;
76788;SDS011;65740;52.464;13.446;2023-07-22T02:50:02;2.70;;;2.57;;
76788;SDS011;65740;52.464;13.446;2023-07-22T02:52:29;3.20;;;3.00;;
76788;SDS011;65740;52.464;13.446;2023-07-22T02:55:08;3.10;;;2.90;;
76788;SDS011;65740;52.464;13.446;2023-07-22T02:57:35;2.97;;;2.87;;
76788;SDS011;65740;52.464;13.446;2023-07-22T03:00:02;2.70;;;2.60;;
76788;SDS011;65740;52.464;13.446;2023-07-22T03:02:32;3.30;;;3.10;;
76788;SDS011;65740;52.464;13.446;2023-07-22T03:05:02;2.70;;;2.60;;
76788;SDS011;65740;52.464;13.446;2023-07-22T03:07:32;2.90;;;2.80;;
76788;SDS011;65740;52.464;13.446;2023-07-22T03:09:58;3.00;;;2.90;;
76788;SDS011;65740;52.464;13.446;2023-07-22T03:12:24;2.90;;;2.80;;
76788;SDS011;65740;52.464;13.446;2023-07-22T03:14:49;3.33;;;3.13;;
76788;SDS011;65740;52.464;13.446;2023-07-22T03:17:15;3.20;;;3.00;;
76788;SDS011;65740;52.464;13.446;2023-07-22T03:19:42;2.60;;;2.50;;
76788;SDS011;65740;52.464;13.446;2023-07-22T03:22:08;3.20;;;3.00;;
76788;SDS011;65740;52.464;13.446;2023-07-22T03:24:34;3.20;;;3.00;;
76788;SDS011;65740;52.464;13.446;2023-07-22T03:27:00;3.20;;;3.00;;
76788;SDS011;65740;52.464;13.446;2023-07-22T03:29:26;2.80;;;2.70;;
76788;SDS011;65740;52.464;13.446;2023-07-22T03:31:52;2.90;;;2.80;;
76788;SDS011;65740;52.464;13.446;2023-07-22T03:34:18;3.13;;;2.93;;
76788;SDS011;65740;52.464;13.446;2023-07-22T03:36:44;3.33;;;3.03;;
76788;SDS011;65740;52.464;13.446;2023-07-22T03:39:11;3.10;;;3.00;;
76788;SDS011;65740;52.464;13.446;2023-07-22T03:41:36;3.07;;;2.97;;
76788;SDS011;65740;52.464;13.446;2023-07-22T03:44:02;3.00;;;2.80;;
76788;SDS011;65740;52.464;13.446;2023-07-22T03:46:28;3.50;;;3.30;;
76788;SDS011;65740;52.464;13.446;2023-07-22T03:48:53;2.90;;;2.80;;
76788;SDS011;65740;52.464;13.446;2023-07-22T03:51:19;3.20;;;3.10;;
76788;SDS011;65740;52.464;13.446;2023-07-22T03:53:45;3.10;;;3.00;;
76788;SDS011;65740;52.464;13.446;2023-07-22T03:56:11;3.33;;;3.20;;
76788;SDS011;65740;52.464;13.446;2023-07-22T03:58:36;2.63;;;2.53;;
76788;SDS011;65740;52.464;13.446;2023-07-22T04:01:02;2.70;;;2.60;;
76788;SDS011;65740;52.464;13.446;2023-07-22T04:03:27;2.80;;;2.70;;
76788;SDS011;65740;52.464;13.446;2023-07-22T04:05:56;3.10;;;3.00;;
76788;SDS011;65740;52.464;13.446;2023-07-22T04:08:22;3.70;;;3.40;;
76788;SDS011;65740;52.464;13.446;2023-07-22T04:10:51;2.70;;;2.60;;
76788;SDS011;65740;52.464;13.446;2023-07-22T04:13:21;3.00;;;2.90;;
76788;SDS011;65740;52.464;13.446;2023-07-22T04:15:48;2.70;;;2.60;;
76788;SDS011;65740;52.464;13.446;2023-07-22T04:18:16;2.87;;;2.67;;
76788;SDS011;65740;52.464;13.446;2023-07-22T04:20:43;3.27;;;3.07;;
76788;SDS011;65740;52.464;13.446;2023-07-22T04:23:09;3.30;;;3.10;;
76788;SDS011;65740;52.464;13.446;2023-07-22T04:25:41;3.17;;;2.97;;
76788;SDS011;65740;52.464;13.446;2023-07-22T04:28:08;2.70;;;2.60;;
76788;SDS011;65740;52.464;13.446;2023-07-22T04:30:34;2.90;;;2.70;;
76788;SDS011;65740;52.464;13.446;2023-07-22T04:33:00;2.87;;;2.70;;
76788;SDS011;65740;52.464;13.446;2023-07-22T04:35:26;2.70;;;2.60;;
76788;SDS011;65740;52.464;13.446;2023-07-22T04:37:52;3.00;;;2.90;;
76788;SDS011;65740;52.464;13.446;2023-07-22T04:40:18;2.90;;;2.80;;
76788;SDS011;65740;52.464;13.446;2023-07-22T04:42:44;3.30;;;3.10;;
76788;SDS011;65740;52.464;13.446;2023-07-22T04:45:11;2.93;;;2.73;;
76788;SDS011;65740;52.464;13.446;2023-07-22T04:47:37;3.40;;;3.20;;
76788;SDS011;65740;52.464;13.446;2023-07-22T04:50:09;2.97;;;2.80;;
76788;SDS011;65740;52.464;13.446;2023-07-22T04:52:35;2.80;;;2.60;;
76788;SDS011;65740;52.464;13.446;2023-07-22T04:55:01;2.83;;;2.73;;
76788;SDS011;65740;52.464;13.446;2023-07-22T04:57:37;2.60;;;2.50;;
76788;SDS011;65740;52.464;13.446;2023-07-22T05:00:03;3.13;;;2.93;;
76788;SDS011;65740;52.464;13.446;2023-07-22T05:02:30;2.97;;;2.87;;
76788;SDS011;65740;52.464;13.446;2023-07-22T05:04:56;3.20;;;3.00;;
76788;SDS011;65740;52.464;13.446;2023-07-22T05:07:22;2.90;;;2.80;;
76788;SDS011;65740;52.464;13.446;2023-07-22T05:09:48;2.97;;;2.77;;
76788;SDS011;65740;52.464;13.446;2023-07-22T05:12:13;2.73;;;2.63;;
76788;SDS011;65740;52.464;13.446;2023-07-22T05:14:39;3.30;;;3.20;;
76788;SDS011;65740;52.464;13.446;2023-07-22T05:17:04;3.30;;;3.10;;
76788;SDS011;65740;52.464;13.446;2023-07-22T05:19:30;2.80;;;2.60;;
76788;SDS011;65740;52.464;13.446;2023-07-22T05:21:56;3.23;;;3.07;;
76788;SDS011;65740;52.464;13.446;2023-07-22T05:24:22;2.70;;;2.60;;
76788;SDS011;65740;52.464;13.446;2023-07-22T05:26:47;2.80;;;2.70;;
76788;SDS011;65740;52.464;13.446;2023-07-22T05:29:13;3.37;;;3.17;;
76788;SDS011;65740;52.464;13.446;2023-07-22T05:31:38;3.43;;;3.23;;
76788;SDS011;65740;52.464;13.446;2023-07-22T05:34:04;2.97;;;2.83;;
76788;SDS011;65740;52.464;13.446;2023-07-22T05:36:30;3.10;;;3.00;;
76788;SDS011;65740;52.464;13.446;2023-07-22T05:38:55;3.57;;;3.37;;
76788;SDS011;65740;52.464;13.446;2023-07-22T05:41:22;2.73;;;2.63;;
76788;SDS011;65740;52.464;13.446;2023-07-22T05:43:47;3.20;;;3.03;;
76788;SDS011;65740;52.464;13.446;2023-07-22T05:46:13;2.87;;;2.77;;
76788;SDS011;65740;52.464;13.446;2023-07-22T05:48:39;2.80;;;2.70;;
76788;SDS011;65740;52.464;13.446;2023-07-22T05:51:04;2.90;;;2.80;;
76788;SDS011;65740;52.464;13.446;2023-07-22T05:53:30;3.20;;;3.10;;
76788;SDS011;65740;52.464;13.446;2023-07-22T05:55:57;2.80;;;2.70;;
76788;SDS011;65740;52.464;13.446;2023-07-22T05:58:23;2.80;;;2.70;;
76788;SDS011;65740;52.464;13.446;2023-07-22T06:00:48;3.20;;;3.00;;
76788;SDS011;65740;52.464;13.446;2023-07-22T06:03:16;2.63;;;2.53;;
76788;SDS011;65740;52.464;13.446;2023-07-22T06:05:42;2.77;;;2.67;;
76788;SDS011;65740;52.464;13.446;2023-07-22T06:08:08;2.87;;;2.77;;
76788;SDS011;65740;52.464;13.446;2023-07-22T06:10:33;3.10;;;3.00;;
76788;SDS011;65740;52.464;13.446;2023-07-22T06:12:59;3.00;;;2.80;;
76788;SDS011;65740;52.464;13.446;2023-07-22T06:15:24;3.03;;;2.83;;
76788;SDS011;65740;52.464;13.446;2023-07-22T06:17:50;2.90;;;2.80;;
76788;SDS011;65740;52.464;13.446;2023-07-22T06:20:15;2.70;;;2.60;;
76788;SDS011;65740;52.464;13.446;2023-07-22T06:22:41;3.07;;;2.87;;
76788;SDS011;65740;52.464;13.446;2023-07-22T06:25:07;3.10;;;2.90;;
76788;SDS011;65740;52.464;13.446;2023-07-22T06:27:33;3.20;;;2.90;;
76788;SDS011;65740;52.464;13.446;2023-07-22T06:30:00;2.77;;;2.60;;
76788;SDS011;65740;52.464;13.446;2023-07-22T06:32:26;3.07;;;2.87;;
76788;SDS011;65740;52.464;13.446;2023-07-22T06:34:54;3.13;;;3.03;;
76788;SDS011;65740;52.464;13.446;2023-07-22T06:37:21;2.90;;;2.80;;
76788;SDS011;65740;52.464;13.446;2023-07-22T06:39:48;3.30;;;3.10;;
76788;SDS011;65740;52.464;13.446;2023-07-22T06:42:13;3.30;;;3.13;;
76788;SDS011;65740;52.464;13.446;2023-07-22T06:44:39;3.33;;;3.13;;
76788;SDS011;65740;52.464;13.446;2023-07-22T06:47:04;3.00;;;2.90;;
76788;SDS011;65740;52.464;13.446;2023-07-22T06:49:30;3.03;;;2.93;;
76788;SDS011;65740;52.464;13.446;2023-07-22T06:51:56;3.30;;;3.10;;
76788;SDS011;65740;52.464;13.446;2023-07-22T06:54:22;2.93;;;2.80;;
76788;SDS011;65740;52.464;13.446;2023-07-22T06:56:47;3.40;;;3.20;;
76788;SDS011;65740;52.464;13.446;2023-07-22T06:59:13;3.50;;;3.30;;
76788;SDS011;65740;52.464;13.446;2023-07-22T07:01:38;2.83;;;2.73;;
76788;SDS011;65740;52.464;13.446;2023-07-22T07:04:04;3.30;;;3.20;;
76788;SDS011;65740;52.464;13.446;2023-07-22T07:06:30;3.40;;;3.20;;
76788;SDS011;65740;52.464;13.446;2023-07-22T07:08:58;3.30;;;3.10;;
76788;SDS011;65740;52.464;13.446;2023-07-22T07:11:25;2.90;;;2.80;;
76788;SDS011;65740;52.464;13.446;2023-07-22T07:13:51;3.10;;;2.90;;
76788;SDS011;65740;52.464;13.446;2023-07-22T07:18:50;3.40;;;3.20;;
76788;SDS011;65740;52.464;13.446;2023-07-22T07:21:17;3.00;;;2.80;;
76788;SDS011;65740;52.464;13.446;2023-07-22T07:23:43;3.00;;;2.90;;
76788;SDS011;65740;52.464;13.446;2023-07-22T07:26:09;3.50;;;3.30;;
76788;SDS011;65740;52.464;13.446;2023-07-22T07:28:35;3.23;;;3.03;;
76788;SDS011;65740;52.464;13.446;2023-07-22T07:31:00;3.23;;;3.03;;
76788;SDS011;65740;52.464;13.446;2023-07-22T07:33:26;3.17;;;3.07;;
76788;SDS011;65740;52.464;13.446;2023-07-22T07:35:53;3.03;;;2.93;;
76788;SDS011;65740;52.464;13.446;2023-07-22T07:38:18;3.00;;;2.90;;
76788;SDS011;65740;52.464;13.446;2023-07-22T07:40:44;2.80;;;2.70;;
76788;SDS011;65740;52.464;13.446;2023-07-22T07:43:09;3.23;;;3.10;;
76788;SDS011;65740;52.464;13.446;2023-07-22T07:45:38;3.03;;;2.83;;
76788;SDS011;65740;52.464;13.446;2023-07-22T07:48:04;3.40;;;3.20;;
76788;SDS011;65740;52.464;13.446;2023-07-22T07:50:30;2.77;;;2.67;;
76788;SDS011;65740;52.464;13.446;2023-07-22T07:52:57;3.10;;;3.00;;
76788;SDS011;65740;52.464;13.446;2023-07-22T07:55:22;3.00;;;2.90;;
76788;SDS011;65740;52.464;13.446;2023-07-22T07:57:48;3.27;;;3.10;;
76788;SDS011;65740;52.464;13.446;2023-07-22T08:00:14;3.20;;;3.00;;
76788;SDS011;65740;52.464;13.446;2023-07-22T08:02:40;3.70;;;3.50;;
76788;SDS011;65740;52.464;13.446;2023-07-22T08:05:05;3.50;;;3.30;;
76788;SDS011;65740;52.464;13.446;2023-07-22T08:07:31;3.50;;;3.30;;
76788;SDS011;65740;52.464;13.446;2023-07-22T08:09:57;3.67;;;3.47;;
76788;SDS011;65740;52.464;13.446;2023-07-22T08:12:23;3.00;;;2.90;;
76788;SDS011;65740;52.464;13.446;2023-07-22T08:14:49;3.17;;;3.07;;
76788;SDS011;65740;52.464;13.446;2023-07-22T08:17:17;3.23;;;3.03;;
76788;SDS011;65740;52.464;13.446;2023-07-22T08:19:42;2.97;;;2.77;;
76788;SDS011;65740;52.464;13.446;2023-07-22T08:22:08;3.70;;;3.50;;
76788;SDS011;65740;52.464;13.446;2023-07-22T08:24:33;3.63;;;3.43;;
76788;SDS011;65740;52.464;13.446;2023-07-22T08:26:59;3.37;;;3.17;;
76788;SDS011;65740;52.464;13.446;2023-07-22T08:29:24;3.37;;;3.17;;
76788;SDS011;65740;52.464;13.446;2023-07-22T08:31:50;3.40;;;3.20;;
76788;SDS011;65740;52.464;13.446;2023-07-22T08:34:16;3.37;;;3.17;;
76788;SDS011;65740;52.464;13.446;2023-07-22T08:36:41;3.60;;;3.40;;
76788;SDS011;65740;52.464;13.446;2023-07-22T08:39:07;3.63;;;3.43;;
76788;SDS011;65740;52.464;13.446;2023-07-22T08:41:33;3.60;;;3.40;;
76788;SDS011;65740;52.464;13.446;2023-07-22T08:43:59;3.43;;;3.23;;
76788;SDS011;65740;52.464;13.446;2023-07-22T08:46:27;4.00;;;3.80;;
76788;SDS011;65740;52.464;13.446;2023-07-22T08:48:56;3.20;;;3.10;;
76788;SDS011;65740;52.464;13.446;2023-07-22T08:51:25;3.63;;;3.43;;
76788;SDS011;65740;52.464;13.446;2023-07-22T08:53:53;3.63;;;3.43;;
76788;SDS011;65740;52.464;13.446;2023-07-22T08:56:23;3.40;;;3.20;;
76788;SDS011;65740;52.464;13.446;2023-07-22T08:58:50;3.50;;;3.30;;
76788;SDS011;65740;52.464;13.446;2023-07-22T09:01:17;3.20;;;3.00;;
76788;SDS011;65740;52.464;13.446;2023-07-22T09:03:42;3.70;;;3.50;;
76788;SDS011;65740;52.464;13.446;2023-07-22T09:06:08;3.77;;;3.57;;
76788;SDS011;65740;52.464;13.446;2023-07-22T09:08:35;3.93;;;3.63;;
76788;SDS011;65740;52.464;13.446;2023-07-22T09:11:01;3.60;;;3.40;;
76788;SDS011;65740;52.464;13.446;2023-07-22T09:13:27;3.77;;;3.57;;
76788;SDS011;65740;52.464;13.446;2023-07-22T09:15:53;3.90;;;3.60;;
76788;SDS011;65740;52.464;13.446;2023-07-22T09:18:23;3.50;;;3.30;;
76788;SDS011;65740;52.464;13.446;2023-07-22T09:20:49;3.97;;;3.67;;
76788;SDS011;65740;52.464;13.446;2023-07-22T09:23:15;3.90;;;3.70;;
76788;SDS011;65740;52.464;13.446;2023-07-22T09:25:41;3.73;;;3.53;;
76788;SDS011;65740;52.464;13.446;2023-07-22T09:28:07;3.40;;;3.20;;
76788;SDS011;65740;52.464;13.446;2023-07-22T09:30:35;3.50;;;3.30;;
76788;SDS011;65740;52.464;13.446;2023-07-22T09:33:04;3.63;;;3.43;;
76788;SDS011;65740;52.464;13.446;2023-07-22T09:35:31;3.50;;;3.30;;
76788;SDS011;65740;52.464;13.446;2023-07-22T09:38:11;4.10;;;3.80;;
76788;SDS011;65740;52.464;13.446;2023-07-22T09:40:39;3.90;;;3.70;;
76788;SDS011;65740;52.464;13.446;2023-07-22T09:43:05;3.60;;;3.40;;
76788;SDS011;65740;52.464;13.446;2023-07-22T09:45:34;3.60;;;3.40;;
76788;SDS011;65740;52.464;13.446;2023-07-22T09:48:00;3.77;;;3.57;;
76788;SDS011;65740;52.464;13.446;2023-07-22T09:50:26;3.73;;;3.53;;
76788;SDS011;65740;52.464;13.446;2023-07-22T09:52:55;4.00;;;3.80;;
76788;SDS011;65740;52.464;13.446;2023-07-22T09:55:24;3.73;;;3.53;;
76788;SDS011;65740;52.464;13.446;2023-07-22T09:57:54;3.53;;;3.33;;
76788;SDS011;65740;52.464;13.446;2023-07-22T10:00:23;3.73;;;3.53;;
76788;SDS011;65740;52.464;13.446;2023-07-22T10:02:50;4.07;;;3.87;;
76788;SDS011;65740;52.464;13.446;2023-07-22T10:05:18;3.87;;;3.67;;
76788;SDS011;65740;52.464;13.446;2023-07-22T10:07:55;3.73;;;3.53;;
76788;SDS011;65740;52.464;13.446;2023-07-22T10:10:34;3.67;;;3.43;;
76788;SDS011;65740;52.464;13.446;2023-07-22T10:13:02;3.57;;;3.37;;
76788;SDS011;65740;52.464;13.446;2023-07-22T10:15:29;3.90;;;3.70;;
76788;SDS011;65740;52.464;13.446;2023-07-22T10:17:56;3.67;;;3.47;;
76788;SDS011;65740;52.464;13.446;2023-07-22T10:20:23;3.30;;;3.13;;
76788;SDS011;65740;52.464;13.446;2023-07-22T10:22:49;3.40;;;3.20;;
76788;SDS011;65740;52.464;13.446;2023-07-22T10:25:17;3.50;;;3.30;;
76788;SDS011;65740;52.464;13.446;2023-07-22T10:27:43;3.77;;;3.57;;
76788;SDS011;65740;52.464;13.446;2023-07-22T10:30:11;4.17;;;3.97;;
76788;SDS011;65740;52.464;13.446;2023-07-22T10:32:39;3.73;;;3.53;;
76788;SDS011;65740;52.464;13.446;2023-07-22T10:37:46;4.03;;;3.83;;
76788;SDS011;65740;52.464;13.446;2023-07-22T10:45:26;3.53;;;3.33;;
76788;SDS011;65740;52.464;13.446;2023-07-22T10:48:14;3.93;;;3.63;;
76788;SDS011;65740;52.464;13.446;2023-07-22T10:50:42;3.77;;;3.57;;
76788;SDS011;65740;52.464;13.446;2023-07-22T10:53:12;3.73;;;3.53;;
76788;SDS011;65740;52.464;13.446;2023-07-22T10:56:05;3.80;;;3.60;;
76788;SDS011;65740;52.464;13.446;2023-07-22T11:11:53;3.90;;;3.70;;
76788;SDS011;65740;52.464;13.446;2023-07-22T11:14:22;3.33;;;3.07;;
76788;SDS011;65740;52.464;13.446;2023-07-22T11:16:49;4.13;;;3.93;;
76788;SDS011;65740;52.464;13.446;2023-07-22T11:19:16;3.77;;;3.53;;
76788;SDS011;65740;52.464;13.446;2023-07-22T11:21:46;3.90;;;3.70;;
76788;SDS011;65740;52.464;13.446;2023-07-22T11:24:13;3.90;;;3.70;;
76788;SDS011;65740;52.464;13.446;2023-07-22T11:26:40;4.10;;;3.90;;
76788;SDS011;65740;52.464;13.446;2023-07-22T11:29:06;3.73;;;3.53;;
76788;SDS011;65740;52.464;13.446;2023-07-22T11:31:34;3.67;;;3.37;;
76788;SDS011;65740;52.464;13.446;2023-07-22T11:34:02;3.93;;;3.73;;
76788;SDS011;65740;52.464;13.446;2023-07-22T11:36:28;3.90;;;3.70;;
76788;SDS011;65740;52.464;13.446;2023-07-22T11:38:53;3.90;;;3.70;;
76788;SDS011;65740;52.464;13.446;2023-07-22T11:41:26;3.73;;;3.53;;
76788;SDS011;65740;52.464;13.446;2023-07-22T11:43:51;3.90;;;3.70;;
76788;SDS011;65740;52.464;13.446;2023-07-22T11:46:17;3.87;;;3.67;;
76788;SDS011;65740;52.464;13.446;2023-07-22T11:48:52;3.63;;;3.43;;
76788;SDS011;65740;52.464;13.446;2023-07-22T11:51:24;4.10;;;3.90;;
76788;SDS011;65740;52.464;13.446;2023-07-22T11:53:51;3.50;;;3.30;;
76788;SDS011;65740;52.464;13.446;2023-07-22T11:56:21;3.60;;;3.40;;
76788;SDS011;65740;52.464;13.446;2023-07-22T11:58:48;3.70;;;3.40;;
76788;SDS011;65740;52.464;13.446;2023-07-22T12:01:15;3.67;;;3.47;;
76788;SDS011;65740;52.464;13.446;2023-07-22T12:03:41;3.60;;;3.40;;
76788;SDS011;65740;52.464;13.446;2023-07-22T12:06:06;3.70;;;3.50;;
76788;SDS011;65740;52.464;13.446;2023-07-22T12:08:33;4.10;;;3.80;;
76788;SDS011;65740;52.464;13.446;2023-07-22T12:10:59;3.60;;;3.40;;
76788;SDS011;65740;52.464;13.446;2023-07-22T12:13:25;3.97;;;3.70;;
76788;SDS011;65740;52.464;13.446;2023-07-22T12:16:04;3.90;;;3.70;;
76788;SDS011;65740;52.464;13.446;2023-07-22T12:21:09;4.07;;;3.87;;
76788;SDS011;65740;52.464;13.446;2023-07-22T12:23:36;4.10;;;3.90;;
76788;SDS011;65740;52.464;13.446;2023-07-22T12:26:02;4.13;;;3.93;;
76788;SDS011;65740;52.464;13.446;2023-07-22T12:28:28;4.10;;;3.80;;
76788;SDS011;65740;52.464;13.446;2023-07-22T12:30:54;4.00;;;3.80;;
76788;SDS011;65740;52.464;13.446;2023-07-22T12:33:22;4.10;;;3.90;;
76788;SDS011;65740;52.464;13.446;2023-07-22T12:35:49;3.67;;;3.47;;
76788;SDS011;65740;52.464;13.446;2023-07-22T12:38:15;4.33;;;4.10;;
76788;SDS011;65740;52.464;13.446;2023-07-22T12:40:40;4.00;;;3.80;;
76788;SDS011;65740;52.464;13.446;2023-07-22T12:43:06;4.03;;;3.83;;
76788;SDS011;65740;52.464;13.446;2023-07-22T12:45:33;3.97;;;3.77;;
76788;SDS011;65740;52.464;13.446;2023-07-22T12:47:58;4.30;;;4.00;;
76788;SDS011;65740;52.464;13.446;2023-07-22T12:50:24;4.20;;;4.00;;
76788;SDS011;65740;52.464;13.446;2023-07-22T12:52:49;3.93;;;3.73;;
76788;SDS011;65740;52.464;13.446;2023-07-22T12:55:15;4.53;;;4.33;;
76788;SDS011;65740;52.464;13.446;2023-07-22T12:57:41;4.23;;;4.03;;
76788;SDS011;65740;52.464;13.446;2023-07-22T13:00:06;4.20;;;3.90;;
76788;SDS011;65740;52.464;13.446;2023-07-22T13:02:35;3.57;;;3.37;;
76788;SDS011;65740;52.464;13.446;2023-07-22T13:05:01;3.87;;;3.67;;
76788;SDS011;65740;52.464;13.446;2023-07-22T13:07:27;3.80;;;3.60;;
76788;SDS011;65740;52.464;13.446;2023-07-22T13:09:52;4.00;;;3.80;;
76788;SDS011;65740;52.464;13.446;2023-07-22T13:12:21;3.90;;;3.70;;
76788;SDS011;65740;52.464;13.446;2023-07-22T13:14:47;4.10;;;3.90;;
76788;SDS011;65740;52.464;13.446;2023-07-22T13:17:13;4.00;;;3.80;;
76788;SDS011;65740;52.464;13.446;2023-07-22T13:19:38;4.20;;;4.00;;
76788;SDS011;65740;52.464;13.446;2023-07-22T13:22:04;4.00;;;3.77;;
76788;SDS011;65740;52.464;13.446;2023-07-22T13:24:30;4.07;;;3.87;;
76788;SDS011;65740;52.464;13.446;2023-07-22T13:26:55;4.00;;;3.80;;
76788;SDS011;65740;52.464;13.446;2023-07-22T13:29:21;3.90;;;3.70;;
76788;SDS011;65740;52.464;13.446;2023-07-22T13:31:46;4.10;;;3.90;;
76788;SDS011;65740;52.464;13.446;2023-07-22T13:34:12;6.30;;;3.73;;
76788;SDS011;65740;52.464;13.446;2023-07-22T13:36:38;4.03;;;3.83;;
76788;SDS011;65740;52.464;13.446;2023-07-22T13:39:03;3.67;;;3.47;;
76788;SDS011;65740;52.464;13.446;2023-07-22T13:41:29;4.17;;;3.87;;
76788;SDS011;65740;52.464;13.446;2023-07-22T13:43:54;3.87;;;3.67;;
76788;SDS011;65740;52.464;13.446;2023-07-22T13:46:20;4.33;;;4.03;;
76788;SDS011;65740;52.464;13.446;2023-07-22T13:48:45;4.13;;;3.93;;
76788;SDS011;65740;52.464;13.446;2023-07-22T13:51:11;4.07;;;3.77;;
76788;SDS011;65740;52.464;13.446;2023-07-22T13:53:37;4.47;;;4.17;;
76788;SDS011;65740;52.464;13.446;2023-07-22T13:56:02;4.17;;;3.90;;
76788;SDS011;65740;52.464;13.446;2023-07-22T13:58:28;4.53;;;4.23;;
76788;SDS011;65740;52.464;13.446;2023-07-22T14:00:53;4.40;;;4.10;;
76788;SDS011;65740;52.464;13.446;2023-07-22T14:03:19;4.30;;;4.07;;
76788;SDS011;65740;52.464;13.446;2023-07-22T14:05:45;4.13;;;3.93;;
76788;SDS011;65740;52.464;13.446;2023-07-22T14:08:12;4.10;;;3.90;;
76788;SDS011;65740;52.464;13.446;2023-07-22T14:10:37;4.57;;;4.27;;
76788;SDS011;65740;52.464;13.446;2023-07-22T14:13:03;4.40;;;4.10;;
76788;SDS011;65740;52.464;13.446;2023-07-22T14:15:28;3.77;;;3.57;;
76788;SDS011;65740;52.464;13.446;2023-07-22T14:17:54;4.00;;;3.80;;
76788;SDS011;65740;52.464;13.446;2023-07-22T14:20:20;4.60;;;4.30;;
76788;SDS011;65740;52.464;13.446;2023-07-22T14:22:45;4.30;;;4.00;;
76788;SDS011;65740;52.464;13.446;2023-07-22T14:25:11;4.03;;;3.83;;
76788;SDS011;65740;52.464;13.446;2023-07-22T14:27:38;4.60;;;4.30;;
76788;SDS011;65740;52.464;13.446;2023-07-22T14:30:05;4.07;;;3.80;;
76788;SDS011;65740;52.464;13.446;2023-07-22T14:32:31;4.33;;;4.03;;
76788;SDS011;65740;52.464;13.446;2023-07-22T14:34:57;4.30;;;4.10;;
76788;SDS011;65740;52.464;13.446;2023-07-22T14:37:22;4.30;;;4.00;;
76788;SDS011;65740;52.464;13.446;2023-07-22T14:39:49;4.67;;;4.37;;
76788;SDS011;65740;52.464;13.446;2023-07-22T14:42:15;4.17;;;3.97;;
76788;SDS011;65740;52.464;13.446;2023-07-22T14:44:40;4.33;;;4.13;;
76788;SDS011;65740;52.464;13.446;2023-07-22T14:47:06;4.60;;;4.30;;
76788;SDS011;65740;52.464;13.446;2023-07-22T14:49:31;4.73;;;4.43;;
76788;SDS011;65740;52.464;13.446;2023-07-22T14:51:57;3.97;;;3.77;;
76788;SDS011;65740;52.464;13.446;2023-07-22T14:54:23;4.30;;;4.10;;
76788;SDS011;65740;52.464;13.446;2023-07-22T14:56:48;4.10;;;3.90;;